Time;durP1;ratioP1;P1;durP2;ratioP2;P2;SDS_P1;SDS_P2;PMS_P1;PMS_P2;Temp;Humidity;BMP_temperature;BMP_pressure;BME280_temperature;BME280_humidity;BME280_pressure;Samples;Min_cycle;Max_cycle;Signal;HPM_P1;HPM_P2
2021/06/08 00:02:03;;;;;;;36.83;33.45;;;;;;;;;;4961710;28;20171;-59
2021/06/08 00:04:28;;;;;;;40.77;37.03;;;;;;;;;;4950301;28;20230;-59
2021/06/08 00:06:53;;;;;;;36.97;33.77;;;;;;;;;;4973384;28;20190;-59
2021/06/08 00:09:18;;;;;;;36.20;32.83;;;;;;;;;;4971051;28;20190;-58
2021/06/08 00:11:50;;;;;;;36.40;33.22;;;;;;;;;;4984770;28;20197;-63
2021/06/08 00:14:15;;;;;;;36.07;32.80;;;;;;;;;;4958928;28;20205;-59
2021/06/08 00:16:40;;;;;;;37.10;33.78;;;;;;;;;;4969305;28;20614;-60
2021/06/08 00:19:05;;;;;;;40.00;36.43;;;;;;;;;;4969513;28;20643;-59
2021/06/08 00:21:31;;;;;;;36.65;33.40;;;;;;;;;;4980877;28;20178;-59
2021/06/08 00:23:56;;;;;;;36.00;32.70;;;;;;;;;;4969282;28;20191;-59
2021/06/08 00:26:21;;;;;;;37.97;34.50;;;;;;;;;;4980144;28;20853;-63
2021/06/08 00:28:47;;;;;;;37.55;33.97;;;;;;;;;;4973451;28;20209;-60
2021/06/08 00:31:12;;;;;;;37.40;33.90;;;;;;;;;;4971180;28;20222;-59
2021/06/08 00:33:37;;;;;;;36.57;33.07;;;;;;;;;;4980834;28;20210;-59
2021/06/08 00:36:02;;;;;;;37.45;34.15;;;;;;;;;;4970120;28;20260;-59
2021/06/08 00:38:27;;;;;;;37.20;33.80;;;;;;;;;;4980270;28;20172;-60
2021/06/08 00:40:53;;;;;;;36.97;33.67;;;;;;;;;;4975833;28;20819;-60
2021/06/08 00:43:23;;;;;;;36.97;33.58;;;;;;;;;;4973421;28;20188;-60
2021/06/08 00:45:48;;;;;;;35.60;32.13;;;;;;;;;;4968517;28;20526;-60
2021/06/08 00:48:14;;;;;;;37.35;33.75;;;;;;;;;;4969688;28;20742;-60
2021/06/08 00:50:39;;;;;;;37.27;33.77;;;;;;;;;;4969611;28;20214;-60
2021/06/08 00:53:04;;;;;;;37.10;33.55;;;;;;;;;;4970606;28;20625;-60
2021/06/08 00:55:30;;;;;;;35.58;32.15;;;;;;;;;;4972938;28;20213;-60
2021/06/08 00:57:55;;;;;;;37.13;33.80;;;;;;;;;;4969751;28;20585;-60
2021/06/08 01:00:20;;;;;;;35.03;31.67;;;;;;;;;;4969778;28;20676;-59
2021/06/08 01:02:45;;;;;;;39.27;35.60;;;;;;;;;;4971865;28;20320;-60
2021/06/08 01:05:11;;;;;;;36.10;32.57;;;;;;;;;;4957596;28;20240;-60
2021/06/08 01:07:36;;;;;;;36.20;32.90;;;;;;;;;;4967322;28;20188;-60
2021/06/08 01:10:02;;;;;;;36.93;33.33;;;;;;;;;;4963811;28;20248;-60
2021/06/08 01:12:28;;;;;;;35.60;32.20;;;;;;;;;;4960793;28;20245;-59
2021/06/08 01:14:53;;;;;;;35.07;31.93;;;;;;;;;;4956387;28;20645;-59
2021/06/08 01:17:18;;;;;;;35.17;31.87;;;;;;;;;;4950031;28;20669;-60
2021/06/08 01:19:44;;;;;;;32.97;30.00;;;;;;;;;;4955210;28;20637;-59
2021/06/08 01:22:10;;;;;;;36.70;33.30;;;;;;;;;;4956804;28;20657;-59
2021/06/08 01:24:35;;;;;;;33.23;30.10;;;;;;;;;;4959961;28;20609;-60
2021/06/08 01:27:03;;;;;;;33.27;30.30;;;;;;;;;;4955082;28;20185;-60
2021/06/08 01:29:30;;;;;;;34.90;31.70;;;;;;;;;;4969543;28;20169;-60
2021/06/08 01:31:59;;;;;;;31.87;28.67;;;;;;;;;;4949244;28;20613;-60
2021/06/08 01:34:25;;;;;;;33.60;30.57;;;;;;;;;;4948686;29;20654;-59
2021/06/08 01:36:50;;;;;;;33.27;30.33;;;;;;;;;;4960157;28;20601;-59
2021/06/08 01:39:16;;;;;;;30.60;27.90;;;;;;;;;;4949529;29;20210;-60
2021/06/08 01:41:42;;;;;;;34.80;31.50;;;;;;;;;;4953824;28;20769;-59
2021/06/08 01:44:07;;;;;;;34.20;31.30;;;;;;;;;;4955983;28;20175;-59
2021/06/08 01:46:32;;;;;;;31.00;28.07;;;;;;;;;;4952983;28;20609;-59
2021/06/08 01:48:57;;;;;;;31.57;28.67;;;;;;;;;;4949404;28;20187;-59
2021/06/08 01:51:29;;;;;;;31.40;28.60;;;;;;;;;;4958730;28;20593;-59
2021/06/08 01:54:03;;;;;;;33.07;30.07;;;;;;;;;;4953499;28;20611;-59
2021/06/08 01:56:30;;;;;;;31.20;28.37;;;;;;;;;;4948243;28;20953;-59
2021/06/08 01:59:01;;;;;;;32.53;29.63;;;;;;;;;;4949017;28;20622;-59
2021/06/08 02:01:32;;;;;;;31.97;28.83;;;;;;;;;;4950305;28;20928;-60
2021/06/08 02:04:02;;;;;;;31.93;28.93;;;;;;;;;;4945064;28;20648;-59
2021/06/08 02:06:32;;;;;;;32.17;29.17;;;;;;;;;;4948513;28;21174;-60
2021/06/08 02:09:00;;;;;;;33.67;30.27;;;;;;;;;;4957829;28;20599;-60
2021/06/08 02:11:29;;;;;;;30.93;28.03;;;;;;;;;;4948832;28;20610;-60
2021/06/08 02:14:07;;;;;;;31.93;29.00;;;;;;;;;;4947949;29;20752;-60
2021/06/08 02:16:37;;;;;;;31.13;28.30;;;;;;;;;;4964557;28;20688;-60
2021/06/08 02:19:03;;;;;;;33.13;29.87;;;;;;;;;;4959521;28;20632;-59
2021/06/08 02:21:30;;;;;;;32.00;29.10;;;;;;;;;;4955328;28;20626;-60
2021/06/08 02:23:55;;;;;;;30.07;27.13;;;;;;;;;;4951711;28;20609;-60
2021/06/08 02:26:23;;;;;;;31.27;28.47;;;;;;;;;;4949361;28;20662;-60
2021/06/08 02:28:49;;;;;;;32.83;29.73;;;;;;;;;;4950475;28;20192;-60
2021/06/08 02:31:16;;;;;;;32.67;29.57;;;;;;;;;;4964147;28;20615;-60
2021/06/08 02:33:42;;;;;;;33.83;30.60;;;;;;;;;;4953112;28;20685;-59
2021/06/08 02:36:07;;;;;;;33.80;30.73;;;;;;;;;;4938050;28;20606;-59
2021/06/08 02:38:34;;;;;;;31.13;28.13;;;;;;;;;;4958255;28;20265;-59
2021/06/08 02:41:00;;;;;;;32.03;29.03;;;;;;;;;;4961892;28;20545;-59
2021/06/08 02:43:26;;;;;;;30.67;27.77;;;;;;;;;;4948188;28;21178;-60
2021/06/08 02:45:51;;;;;;;32.73;29.53;;;;;;;;;;4953023;28;20601;-59
2021/06/08 02:48:17;;;;;;;31.27;28.27;;;;;;;;;;4951452;28;20620;-60
2021/06/08 02:50:45;;;;;;;30.90;28.07;;;;;;;;;;4957547;28;20182;-60
2021/06/08 02:53:10;;;;;;;31.40;28.50;;;;;;;;;;4951055;28;20183;-60
2021/06/08 02:55:35;;;;;;;30.43;27.63;;;;;;;;;;4950371;28;20655;-60
2021/06/08 02:58:01;;;;;;;30.10;27.30;;;;;;;;;;4956433;28;20866;-60
2021/06/08 03:00:26;;;;;;;31.10;28.13;;;;;;;;;;4950940;28;20192;-60
2021/06/08 03:02:53;;;;;;;29.97;27.23;;;;;;;;;;4950565;28;20210;-59
2021/06/08 03:05:27;;;;;;;30.70;27.80;;;;;;;;;;4962463;28;20510;-60
2021/06/08 03:07:53;;;;;;;29.60;26.90;;;;;;;;;;4957052;28;21180;-60
2021/06/08 03:10:20;;;;;;;31.57;28.77;;;;;;;;;;4947966;28;21129;-61
2021/06/08 03:12:52;;;;;;;31.23;28.30;;;;;;;;;;4953604;28;20606;-61
2021/06/08 03:15:18;;;;;;;30.00;27.00;;;;;;;;;;4949380;28;20898;-61
2021/06/08 03:17:44;;;;;;;30.80;27.90;;;;;;;;;;4952155;28;20593;-60
2021/06/08 03:20:13;;;;;;;29.10;26.40;;;;;;;;;;4948907;28;21175;-60
2021/06/08 03:22:41;;;;;;;29.23;26.63;;;;;;;;;;4947584;28;20206;-60
2021/06/08 03:25:07;;;;;;;29.67;26.73;;;;;;;;;;4949769;28;20609;-61
2021/06/08 03:27:33;;;;;;;29.77;27.00;;;;;;;;;;4957766;28;20648;-61
2021/06/08 03:29:58;;;;;;;30.08;27.30;;;;;;;;;;4951010;28;20639;-59
2021/06/08 03:32:24;;;;;;;29.67;26.90;;;;;;;;;;4951892;29;20177;-59
2021/06/08 03:34:49;;;;;;;29.43;26.43;;;;;;;;;;4956215;28;20276;-59
2021/06/08 03:37:15;;;;;;;30.47;27.60;;;;;;;;;;4954916;28;20229;-59
2021/06/08 03:39:41;;;;;;;29.67;26.70;;;;;;;;;;4951331;28;20183;-59
2021/06/08 03:42:06;;;;;;;30.60;27.60;;;;;;;;;;4952801;28;20237;-59
2021/06/08 03:44:33;;;;;;;34.80;31.40;;;;;;;;;;4958458;28;20195;-59
2021/06/08 03:46:58;;;;;;;30.40;27.53;;;;;;;;;;4956616;28;20284;-59
2021/06/08 03:49:23;;;;;;;32.23;29.13;;;;;;;;;;4954719;28;20701;-59
2021/06/08 03:51:50;;;;;;;28.73;26.00;;;;;;;;;;4953462;28;20264;-59
2021/06/08 03:54:15;;;;;;;32.50;29.50;;;;;;;;;;4951193;28;20580;-59
2021/06/08 03:56:41;;;;;;;30.43;27.63;;;;;;;;;;4950565;28;20597;-59
2021/06/08 03:59:09;;;;;;;31.07;28.10;;;;;;;;;;4954867;28;20175;-62
2021/06/08 04:01:35;;;;;;;30.27;27.37;;;;;;;;;;4950614;28;20717;-59
2021/06/08 04:04:00;;;;;;;31.73;28.50;;;;;;;;;;4950710;28;20653;-59
2021/06/08 04:06:25;;;;;;;29.73;26.83;;;;;;;;;;4955975;28;20598;-60
2021/06/08 04:08:50;;;;;;;31.17;28.20;;;;;;;;;;4960062;28;20208;-57
2021/06/08 04:11:19;;;;;;;29.90;27.17;;;;;;;;;;4966836;28;20214;-58
2021/06/08 04:13:44;;;;;;;29.17;26.33;;;;;;;;;;4950765;28;20210;-57
2021/06/08 04:16:10;;;;;;;32.90;29.50;;;;;;;;;;4954033;28;20594;-60
2021/06/08 04:18:36;;;;;;;30.67;27.80;;;;;;;;;;4950276;29;20163;-58
2021/06/08 04:21:01;;;;;;;30.67;27.67;;;;;;;;;;4932318;28;20266;-60
2021/06/08 04:23:27;;;;;;;27.87;25.13;;;;;;;;;;4957239;28;20573;-59
2021/06/08 04:25:53;;;;;;;28.83;26.30;;;;;;;;;;4953556;28;20181;-59
2021/06/08 04:28:19;;;;;;;30.17;27.40;;;;;;;;;;4950410;28;20182;-61
2021/06/08 04:30:45;;;;;;;31.30;28.30;;;;;;;;;;4952260;28;20670;-62
2021/06/08 04:33:10;;;;;;;28.50;25.80;;;;;;;;;;4941542;28;21000;-60
2021/06/08 04:35:35;;;;;;;29.80;26.90;;;;;;;;;;4947439;28;20291;-65
2021/06/08 04:38:00;;;;;;;30.53;27.70;;;;;;;;;;4945163;28;20187;-65
2021/06/08 04:40:27;;;;;;;29.07;26.30;;;;;;;;;;4952531;28;20201;-66
2021/06/08 04:42:52;;;;;;;28.80;26.10;;;;;;;;;;4949891;28;20176;-64
2021/06/08 04:45:17;;;;;;;28.95;26.23;;;;;;;;;;4948738;28;20610;-64
2021/06/08 04:47:43;;;;;;;29.30;26.50;;;;;;;;;;4946905;29;20274;-64
2021/06/08 04:50:09;;;;;;;31.33;28.47;;;;;;;;;;4946271;28;20176;-64
2021/06/08 04:52:34;;;;;;;28.23;25.70;;;;;;;;;;4946060;28;20523;-65
2021/06/08 04:55:00;;;;;;;29.93;26.77;;;;;;;;;;4943438;28;20656;-64
2021/06/08 04:57:25;;;;;;;30.27;27.40;;;;;;;;;;4949520;28;20190;-65
2021/06/08 04:59:57;;;;;;;29.17;26.47;;;;;;;;;;4956421;28;20233;-64
2021/06/08 05:02:31;;;;;;;27.70;25.00;;;;;;;;;;4945586;29;20179;-63
2021/06/08 05:04:57;;;;;;;27.43;24.90;;;;;;;;;;4945353;28;20693;-63
2021/06/08 05:07:23;;;;;;;26.87;24.30;;;;;;;;;;4942866;28;20608;-64
2021/06/08 05:09:49;;;;;;;27.90;25.37;;;;;;;;;;4947915;28;20615;-64
2021/06/08 05:12:16;;;;;;;27.67;24.87;;;;;;;;;;4950839;28;20191;-65
2021/06/08 05:14:46;;;;;;;27.37;24.80;;;;;;;;;;4945323;28;20672;-63
2021/06/08 05:17:11;;;;;;;27.17;24.57;;;;;;;;;;4958413;28;20606;-65
2021/06/08 05:19:37;;;;;;;24.93;22.63;;;;;;;;;;4953960;28;20617;-64
2021/06/08 05:22:03;;;;;;;23.87;21.60;;;;;;;;;;4951304;28;20226;-64
2021/06/08 05:24:28;;;;;;;24.13;21.57;;;;;;;;;;4940588;28;20187;-64
2021/06/08 05:26:53;;;;;;;23.77;21.30;;;;;;;;;;4945701;28;20187;-64
2021/06/08 05:29:20;;;;;;;23.53;21.13;;;;;;;;;;4949572;28;20222;-65
2021/06/08 05:31:46;;;;;;;21.70;19.80;;;;;;;;;;4945901;29;20654;-65
2021/06/08 05:34:11;;;;;;;21.67;19.80;;;;;;;;;;4948123;29;20685;-64
2021/06/08 05:36:37;;;;;;;21.80;19.90;;;;;;;;;;4947946;29;20175;-64
2021/06/08 05:39:03;;;;;;;23.43;21.37;;;;;;;;;;4949285;29;20188;-65
2021/06/08 05:41:28;;;;;;;24.40;22.20;;;;;;;;;;4946510;29;20540;-65
2021/06/08 05:43:54;;;;;;;23.33;21.17;;;;;;;;;;4946639;29;20617;-64
2021/06/08 05:46:19;;;;;;;21.83;20.03;;;;;;;;;;4949854;29;20172;-64
2021/06/08 05:48:44;;;;;;;21.27;19.37;;;;;;;;;;4946936;29;20217;-65
2021/06/08 05:51:10;;;;;;;20.73;19.03;;;;;;;;;;4942291;28;20708;-65
2021/06/08 05:53:38;;;;;;;22.10;20.30;;;;;;;;;;4941179;28;20728;-65
2021/06/08 05:56:04;;;;;;;22.37;20.30;;;;;;;;;;4947571;28;20191;-65
2021/06/08 05:58:30;;;;;;;20.23;18.53;;;;;;;;;;4945246;28;20577;-65
2021/06/08 06:00:56;;;;;;;21.37;19.50;;;;;;;;;;4945286;28;20799;-64
2021/06/08 06:03:22;;;;;;;21.27;19.37;;;;;;;;;;4944626;28;20701;-64
2021/06/08 06:05:47;;;;;;;19.20;17.47;;;;;;;;;;4946103;28;20645;-65
2021/06/08 06:08:12;;;;;;;20.17;18.47;;;;;;;;;;4943100;29;20563;-65
2021/06/08 06:10:38;;;;;;;22.17;20.27;;;;;;;;;;4948388;29;20651;-66
2021/06/08 06:13:04;;;;;;;21.63;19.73;;;;;;;;;;4949194;29;20682;-65
2021/06/08 06:15:30;;;;;;;23.90;21.80;;;;;;;;;;4947369;28;20216;-65
2021/06/08 06:17:55;;;;;;;23.83;21.80;;;;;;;;;;4945850;28;20703;-65
2021/06/08 06:20:21;;;;;;;23.27;21.17;;;;;;;;;;4948037;28;20607;-66
2021/06/08 06:22:46;;;;;;;19.73;18.00;;;;;;;;;;4948467;29;20176;-65
2021/06/08 06:25:12;;;;;;;24.10;21.95;;;;;;;;;;4947418;29;20207;-64
2021/06/08 06:27:39;;;;;;;21.23;19.23;;;;;;;;;;4946817;29;20189;-64
2021/06/08 06:30:05;;;;;;;22.63;20.63;;;;;;;;;;4946180;28;20665;-63
2021/06/08 06:32:30;;;;;;;22.00;20.10;;;;;;;;;;4947995;29;21001;-64
2021/06/08 06:34:55;;;;;;;20.92;19.02;;;;;;;;;;4947310;29;20650;-64
2021/06/08 06:37:24;;;;;;;21.63;19.77;;;;;;;;;;4948690;29;20209;-64
2021/06/08 06:39:50;;;;;;;22.67;20.50;;;;;;;;;;4947606;29;20185;-64
2021/06/08 06:42:15;;;;;;;21.53;19.63;;;;;;;;;;4945676;29;20617;-64
2021/06/08 06:44:41;;;;;;;21.47;19.57;;;;;;;;;;4945509;29;20186;-64
2021/06/08 06:47:07;;;;;;;18.83;17.33;;;;;;;;;;4948149;29;20531;-64
2021/06/08 06:49:32;;;;;;;21.50;19.70;;;;;;;;;;4948482;29;20568;-65
2021/06/08 06:51:57;;;;;;;23.00;21.00;;;;;;;;;;4947842;29;20180;-64
2021/06/08 06:54:23;;;;;;;20.40;18.70;;;;;;;;;;4946894;29;20213;-64
2021/06/08 06:56:49;;;;;;;22.20;20.37;;;;;;;;;;4948625;29;20189;-64
2021/06/08 06:59:14;;;;;;;21.93;19.93;;;;;;;;;;4947308;29;20196;-63
2021/06/08 07:01:41;;;;;;;22.93;20.73;;;;;;;;;;4948151;28;20202;-63
2021/06/08 07:04:07;;;;;;;22.60;20.60;;;;;;;;;;4950533;28;20241;-63
2021/06/08 07:06:33;;;;;;;22.00;20.10;;;;;;;;;;4951986;29;21118;-64
2021/06/08 07:08:59;;;;;;;20.23;18.43;;;;;;;;;;4950643;29;20651;-65
2021/06/08 07:11:26;;;;;;;22.53;20.53;;;;;;;;;;4951272;29;20580;-65
2021/06/08 07:13:51;;;;;;;23.97;21.77;;;;;;;;;;4950394;28;20681;-65
2021/06/08 07:16:18;;;;;;;23.60;21.53;;;;;;;;;;4950755;29;21414;-65
2021/06/08 07:18:45;;;;;;;24.87;22.60;;;;;;;;;;4951175;29;20180;-65
2021/06/08 07:21:10;;;;;;;24.80;22.50;;;;;;;;;;4951846;29;20627;-65
2021/06/08 07:23:36;;;;;;;21.13;19.00;;;;;;;;;;4951752;29;21088;-65
2021/06/08 07:26:01;;;;;;;22.87;20.67;;;;;;;;;;4950465;29;20198;-65
2021/06/08 07:28:26;;;;;;;22.13;19.93;;;;;;;;;;4949108;29;20693;-66
2021/06/08 07:30:52;;;;;;;22.87;20.87;;;;;;;;;;4948824;29;20183;-65
2021/06/08 07:33:27;;;;;;;21.20;19.10;;;;;;;;;;4951838;29;20171;-64
2021/06/08 07:36:06;;;;;;;25.53;23.13;;;;;;;;;;4951131;29;20190;-65
2021/06/08 07:38:34;;;;;;;26.00;23.80;;;;;;;;;;4951822;29;20685;-64
2021/06/08 07:41:02;;;;;;;22.20;20.20;;;;;;;;;;4950033;29;20613;-65
2021/06/08 07:43:32;;;;;;;22.87;20.87;;;;;;;;;;4950769;29;20592;-64
2021/06/08 07:45:59;;;;;;;22.50;20.50;;;;;;;;;;4949881;29;21253;-65
2021/06/08 07:48:27;;;;;;;22.80;20.70;;;;;;;;;;4951255;29;20864;-64
2021/06/08 07:50:53;;;;;;;25.20;21.40;;;;;;;;;;4951099;29;20575;-64
2021/06/08 07:53:18;;;;;;;23.27;21.03;;;;;;;;;;4951333;29;20590;-65
2021/06/08 07:55:44;;;;;;;22.50;20.50;;;;;;;;;;4950716;29;20700;-65
2021/06/08 07:58:10;;;;;;;22.37;20.33;;;;;;;;;;4950355;29;20597;-65
2021/06/08 08:00:35;;;;;;;25.30;22.90;;;;;;;;;;4956928;28;20273;-65
2021/06/08 08:03:25;;;;;;;27.63;25.03;;;;;;;;;;4950743;29;20676;-64
2021/06/08 08:05:46;;;;;;;24.90;22.30;;;;;;;;;;4967153;28;20268;-64
2021/06/08 08:08:14;;;;;;;25.37;23.10;;;;;;;;;;4970400;28;20656;-65
2021/06/08 08:10:39;;;;;;;25.63;23.23;;;;;;;;;;4969920;28;20192;-63
2021/06/08 08:13:05;;;;;;;22.92;20.92;;;;;;;;;;4969278;28;20617;-63
2021/06/08 08:15:30;;;;;;;23.80;21.57;;;;;;;;;;4966958;28;20240;-64
2021/06/08 08:17:55;;;;;;;20.83;18.93;;;;;;;;;;4969907;28;20835;-63
2021/06/08 08:20:28;;;;;;;22.77;20.67;;;;;;;;;;4970580;28;20647;-64
2021/06/08 08:22:53;;;;;;;24.23;21.83;;;;;;;;;;4969460;28;20209;-65
2021/06/08 08:25:18;;;;;;;26.60;23.92;;;;;;;;;;4968807;28;20640;-65
2021/06/08 08:27:43;;;;;;;23.33;21.23;;;;;;;;;;4969963;28;20671;-65
2021/06/08 08:30:09;;;;;;;25.90;23.30;;;;;;;;;;4967463;28;20238;-65
2021/06/08 08:32:34;;;;;;;24.53;22.43;;;;;;;;;;4970197;28;21032;-64
2021/06/08 08:34:59;;;;;;;23.10;20.95;;;;;;;;;;4968745;28;20217;-64
2021/06/08 08:37:24;;;;;;;25.33;22.90;;;;;;;;;;4969683;28;20907;-64
2021/06/08 08:39:50;;;;;;;24.90;22.37;;;;;;;;;;4965213;28;20195;-66
2021/06/08 08:42:17;;;;;;;22.47;20.30;;;;;;;;;;4966214;28;20361;-64
2021/06/08 08:44:42;;;;;;;24.70;22.50;;;;;;;;;;4968690;28;20182;-63
2021/06/08 08:47:08;;;;;;;26.07;23.37;;;;;;;;;;4969344;28;20588;-64
2021/06/08 08:49:33;;;;;;;24.20;21.70;;;;;;;;;;4970009;28;20234;-64
2021/06/08 08:52:00;;;;;;;25.73;23.27;;;;;;;;;;4968948;28;20682;-64
2021/06/08 08:54:25;;;;;;;24.30;21.97;;;;;;;;;;4969027;28;20235;-64
2021/06/08 08:56:50;;;;;;;21.83;19.83;;;;;;;;;;4969572;28;21223;-64
2021/06/08 08:59:17;;;;;;;25.30;22.90;;;;;;;;;;4985013;28;20187;-64
2021/06/08 09:01:46;;;;;;;24.40;22.30;;;;;;;;;;4969963;28;20686;-63
2021/06/08 09:04:12;;;;;;;24.53;22.23;;;;;;;;;;4968936;28;20742;-63
2021/06/08 09:06:37;;;;;;;23.47;21.37;;;;;;;;;;4969379;28;20731;-63
2021/06/08 09:09:06;;;;;;;24.03;21.93;;;;;;;;;;4968356;28;20282;-63
2021/06/08 09:11:36;;;;;;;22.03;20.13;;;;;;;;;;4968767;28;20180;-62
2021/06/08 09:14:01;;;;;;;23.13;21.13;;;;;;;;;;4967661;28;20665;-57
2021/06/08 09:16:26;;;;;;;21.80;19.80;;;;;;;;;;4967901;28;20619;-68
2021/06/08 09:18:51;;;;;;;22.83;20.67;;;;;;;;;;4969099;28;20179;-69
2021/06/08 09:21:19;;;;;;;27.13;22.23;;;;;;;;;;4968603;28;20173;-72
